createdAt,value
2019-02-02T00:01:15.586Z,98530.00
2019-02-02T00:03:45.235Z,98528.00
2019-02-02T00:06:14.918Z,98523.00
2019-02-02T00:08:44.582Z,98521.00
2019-02-02T00:11:14.157Z,98535.00
2019-02-02T00:13:43.834Z,98542.00
2019-02-02T00:16:13.500Z,98520.00
2019-02-02T00:18:43.153Z,98539.00
2019-02-02T00:21:12.911Z,98547.00
2019-02-02T00:23:42.570Z,98554.00
2019-02-02T00:26:12.242Z,98557.00
2019-02-02T00:28:41.931Z,98551.00
2019-02-02T00:31:11.579Z,98560.00
2019-02-02T00:33:41.235Z,98575.00
2019-02-02T00:36:10.918Z,98495.00
2019-02-02T00:38:40.589Z,98566.00
2019-02-02T00:41:10.231Z,98575.00
2019-02-02T00:43:39.909Z,98575.00
2019-02-02T00:46:09.758Z,98576.00
2019-02-02T00:48:39.421Z,98576.00
2019-02-02T00:51:09.133Z,98583.00
2019-02-02T00:53:38.760Z,98588.00
2019-02-02T00:56:08.422Z,98597.00
2019-02-02T00:58:38.083Z,98590.00
2019-02-02T01:01:08.035Z,98589.00
2019-02-02T01:03:37.768Z,98591.00
2019-02-02T01:06:07.953Z,98606.00
2019-02-02T01:08:37.591Z,98597.00
2019-02-02T01:11:08.935Z,98604.00
2019-02-02T01:13:38.618Z,98604.00
2019-02-02T01:16:08.433Z,98602.00
2019-02-02T01:18:39.207Z,98601.00
2019-02-02T01:21:10.499Z,98612.00
2019-02-02T01:23:40.930Z,98605.00
2019-02-02T01:26:10.589Z,98616.00
2019-02-02T01:28:41.389Z,98612.00
2019-02-02T01:31:11.036Z,98612.00
2019-02-02T01:33:40.694Z,98626.00
2019-02-02T01:36:10.373Z,98628.00
2019-02-02T01:38:40.031Z,98627.00
2019-02-02T01:41:09.684Z,98639.00
2019-02-02T01:43:39.357Z,98639.00
2019-02-02T01:46:09.322Z,98641.00
2019-02-02T01:48:38.969Z,98643.00
2019-02-02T01:51:09.348Z,98643.00
2019-02-02T01:53:39.041Z,98656.00
2019-02-02T01:56:08.698Z,98648.00
2019-02-02T01:58:38.371Z,98651.00
2019-02-02T02:01:09.336Z,98654.00
2019-02-02T02:03:38.996Z,98653.00
2019-02-02T02:06:08.990Z,98648.00
2019-02-02T02:08:38.921Z,98664.00
2019-02-02T02:11:08.610Z,98658.00
2019-02-02T02:13:38.293Z,98663.00
2019-02-02T02:16:09.061Z,98667.00
2019-02-02T02:18:38.878Z,98673.00
2019-02-02T02:21:08.544Z,98668.00
2019-02-02T02:23:38.199Z,98669.00
2019-02-02T02:26:07.837Z,98675.00
2019-02-02T02:28:37.519Z,98670.00
2019-02-02T02:31:07.168Z,98679.00
2019-02-02T02:33:36.828Z,98669.00
2019-02-02T02:36:06.498Z,98682.00
2019-02-02T02:38:37.857Z,98674.00
2019-02-02T02:41:07.491Z,98680.00
2019-02-02T02:43:37.154Z,98678.00
2019-02-02T02:46:06.809Z,98686.00
2019-02-02T02:48:38.933Z,98683.00
2019-02-02T02:51:08.595Z,98686.00
2019-02-02T02:53:39.164Z,98683.00
2019-02-02T02:56:08.799Z,98678.00
2019-02-02T02:58:41.708Z,98680.00
2019-02-02T03:01:10.034Z,98690.00
2019-02-02T03:03:39.785Z,98687.00
2019-02-02T03:06:09.450Z,98694.00
2019-02-02T03:08:39.173Z,98705.00
2019-02-02T03:11:08.825Z,98709.00
2019-02-02T03:13:38.495Z,98708.00
2019-02-02T03:16:08.454Z,98714.00
2019-02-02T03:18:39.592Z,98717.00
2019-02-02T03:21:11.538Z,98716.00
2019-02-02T03:23:43.808Z,98718.00
2019-02-02T03:26:13.463Z,98714.00
2019-02-02T03:28:53.180Z,98714.00
2019-02-02T03:31:14.527Z,98727.00
2019-02-02T03:33:44.171Z,98737.00
2019-02-02T03:36:13.834Z,98732.00
2019-02-02T03:38:43.485Z,98749.00
2019-02-02T03:41:13.140Z,98745.00
2019-02-02T03:43:42.810Z,98741.00
2019-02-02T03:46:12.458Z,98747.00
2019-02-02T03:48:43.572Z,98759.00
2019-02-02T03:51:13.836Z,98750.00
2019-02-02T03:53:43.471Z,98741.00
2019-02-02T03:56:13.131Z,98760.00
2019-02-02T03:58:42.784Z,98761.00
2019-02-02T04:01:13.043Z,98763.00
2019-02-02T04:03:42.701Z,98764.00
2019-02-02T04:06:12.360Z,98761.00
2019-02-02T04:08:42.013Z,98772.00
2019-02-02T04:11:11.670Z,98767.00
2019-02-02T04:13:41.344Z,98776.00
2019-02-02T04:16:11.215Z,98776.00
2019-02-02T04:18:41.029Z,98791.00
2019-02-02T04:21:11.687Z,98794.00
2019-02-02T04:23:41.344Z,98800.00
2019-02-02T04:26:10.994Z,98798.00
2019-02-02T04:28:40.661Z,98806.00
2019-02-02T04:31:10.806Z,98817.00
2019-02-02T04:33:40.453Z,98821.00
2019-02-02T04:36:10.916Z,98816.00
2019-02-02T04:38:41.272Z,98824.00
2019-02-02T04:41:10.935Z,98832.00
2019-02-02T04:43:40.535Z,98835.00
2019-02-02T04:46:10.185Z,98837.00
2019-02-02T04:48:39.841Z,98849.00
2019-02-02T04:51:09.514Z,98843.00
2019-02-02T04:53:39.156Z,98850.00
2019-02-02T04:56:08.833Z,98866.00
2019-02-02T04:58:38.559Z,98856.00
2019-02-02T05:01:08.233Z,98859.00
2019-02-02T05:03:37.878Z,98864.00
2019-02-02T05:06:07.557Z,98866.00
2019-02-02T05:08:37.251Z,98862.00
2019-02-02T05:11:06.940Z,98863.00
2019-02-02T05:13:36.554Z,98878.00
2019-02-02T05:16:06.204Z,98878.00
2019-02-02T05:18:35.791Z,98876.00
2019-02-02T05:21:05.565Z,98885.00
2019-02-02T05:23:35.127Z,98895.00
2019-02-02T05:26:04.719Z,98892.00
2019-02-02T05:28:34.468Z,98899.00
2019-02-02T05:31:04.416Z,98897.00
2019-02-02T05:33:34.099Z,98907.00
2019-02-02T05:36:04.249Z,98901.00
2019-02-02T05:38:33.927Z,98914.00
2019-02-02T05:41:03.774Z,98916.00
2019-02-02T05:43:33.450Z,98913.00
2019-02-02T05:46:03.112Z,98920.00
2019-02-02T05:48:33.563Z,98910.00
2019-02-02T05:51:03.249Z,98914.00
2019-02-02T05:53:32.980Z,98923.00
2019-02-02T05:56:02.651Z,98917.00
2019-02-02T05:58:33.895Z,98927.00
2019-02-02T06:01:03.810Z,98926.00
2019-02-02T06:03:33.488Z,98934.00
2019-02-02T06:06:03.168Z,98941.00
2019-02-02T06:08:32.804Z,98932.00
2019-02-02T06:11:02.474Z,98950.00
2019-02-02T06:13:32.072Z,98955.00
2019-02-02T06:16:01.733Z,98968.00
2019-02-02T06:18:34.484Z,98970.00
2019-02-02T06:21:04.278Z,98967.00
2019-02-02T06:23:34.992Z,98977.00
2019-02-02T06:26:05.470Z,98979.00
2019-02-02T06:28:35.143Z,98979.00
2019-02-02T06:31:04.831Z,98975.00
2019-02-02T06:33:36.091Z,98990.00
2019-02-02T06:36:05.973Z,98944.00
2019-02-02T06:38:35.553Z,98992.00
2019-02-02T06:41:05.400Z,98986.00
2019-02-02T06:43:35.804Z,98997.00
2019-02-02T06:46:05.649Z,98998.00
2019-02-02T06:48:35.300Z,99008.00
2019-02-02T06:51:05.299Z,98995.00
2019-02-02T06:53:34.952Z,98996.00
2019-02-02T06:56:05.106Z,99010.00
2019-02-02T06:58:34.702Z,99019.00
2019-02-02T07:01:04.667Z,99015.00
2019-02-02T07:03:34.318Z,99022.00
2019-02-02T07:06:03.990Z,99021.00
2019-02-02T07:08:33.635Z,99028.00
2019-02-02T07:11:03.399Z,99047.00
2019-02-02T07:13:35.918Z,99044.00
2019-02-02T07:16:04.325Z,99060.00
2019-02-02T07:18:33.970Z,99058.00
2019-02-02T07:21:04.030Z,99058.00
2019-02-02T07:23:33.693Z,99072.00
2019-02-02T07:26:03.358Z,99078.00
2019-02-02T07:28:33.061Z,99089.00
2019-02-02T07:31:02.722Z,99079.00
2019-02-02T07:33:32.499Z,99077.00
2019-02-02T07:36:02.181Z,99090.00
2019-02-02T07:38:31.824Z,99096.00
2019-02-02T07:41:01.511Z,99099.00
2019-02-02T07:43:31.207Z,99108.00
2019-02-02T07:46:00.849Z,99117.00
2019-02-02T07:48:30.499Z,99118.00
2019-02-02T07:51:02.047Z,99119.00
2019-02-02T07:53:31.698Z,99122.00
2019-02-02T07:56:01.362Z,99134.00
2019-02-02T07:58:30.915Z,99144.00
2019-02-02T08:01:00.556Z,99144.00
2019-02-02T08:03:30.321Z,99145.00
2019-02-02T08:06:00.004Z,99148.00
2019-02-02T08:08:29.668Z,99157.00
2019-02-02T08:10:59.306Z,99170.00
2019-02-02T08:13:29.004Z,99159.00
2019-02-02T08:16:00.125Z,99169.00
2019-02-02T08:18:29.783Z,99176.00
2019-02-02T08:21:00.722Z,99189.00
2019-02-02T08:23:30.376Z,99189.00
2019-02-02T08:26:00.022Z,99187.00
2019-02-02T08:28:31.168Z,99195.00
2019-02-02T08:31:00.807Z,99197.00
2019-02-02T08:33:30.452Z,99196.00
2019-02-02T08:36:00.120Z,99209.00
2019-02-02T08:38:29.783Z,99204.00
2019-02-02T08:40:59.713Z,99216.00
2019-02-02T08:43:29.398Z,99215.00
2019-02-02T08:45:59.101Z,99224.00
2019-02-02T08:48:28.843Z,99222.00
2019-02-02T08:50:59.579Z,99216.00
2019-02-02T08:53:29.239Z,99222.00
2019-02-02T08:55:58.952Z,99231.00
2019-02-02T08:58:28.651Z,99225.00
2019-02-02T09:01:04.054Z,99227.00
2019-02-02T09:03:29.790Z,99247.00
2019-02-02T09:05:59.533Z,99250.00
2019-02-02T09:08:29.188Z,99242.00
2019-02-02T09:10:58.845Z,99244.00
2019-02-02T09:13:28.516Z,99248.00
2019-02-02T09:15:58.184Z,99262.00
2019-02-02T09:18:27.848Z,99260.00
2019-02-02T09:20:57.660Z,99270.00
2019-02-02T09:23:27.369Z,99274.00
2019-02-02T09:25:58.256Z,99270.00
2019-02-02T09:28:28.577Z,99280.00
2019-02-02T09:30:58.231Z,99280.00
2019-02-02T09:33:29.694Z,99283.00
2019-02-02T09:35:59.357Z,99286.00
2019-02-02T09:38:29.003Z,99289.00
2019-02-02T09:40:58.718Z,99284.00
2019-02-02T09:43:28.414Z,99286.00
2019-02-02T09:45:58.130Z,99286.00
2019-02-02T09:48:27.779Z,99299.00
2019-02-02T09:50:57.445Z,99307.00
2019-02-02T09:53:27.103Z,99309.00
2019-02-02T09:55:56.753Z,99321.00
2019-02-02T09:58:26.429Z,99320.00
2019-02-02T10:00:56.088Z,99320.00
2019-02-02T10:03:25.672Z,99318.00
2019-02-02T10:05:55.347Z,99333.00
2019-02-02T10:08:28.262Z,99332.00
2019-02-02T10:10:58.030Z,99323.00
2019-02-02T10:13:27.706Z,99339.00
2019-02-02T10:15:57.567Z,99356.00
2019-02-02T10:18:27.208Z,99349.00
2019-02-02T10:21:03.609Z,99359.00
2019-02-02T10:23:28.253Z,99366.00
2019-02-02T10:25:57.911Z,99361.00
2019-02-02T10:28:29.441Z,99374.00
2019-02-02T10:30:59.037Z,99371.00
2019-02-02T10:33:28.688Z,99383.00
2019-02-02T10:35:58.364Z,99392.00
2019-02-02T10:38:28.005Z,99388.00
2019-02-02T10:40:57.667Z,99399.00
2019-02-02T10:43:27.347Z,99391.00
2019-02-02T10:45:57.008Z,99405.00
2019-02-02T10:48:26.805Z,99405.00
2019-02-02T10:50:56.523Z,99416.00
2019-02-02T10:53:27.593Z,99413.00
2019-02-02T10:55:57.265Z,99417.00
2019-02-02T10:58:26.977Z,99421.00
2019-02-02T11:00:56.944Z,99421.00
2019-02-02T11:03:26.774Z,99431.00
2019-02-02T11:05:57.635Z,99434.00
2019-02-02T11:08:27.326Z,99438.00
2019-02-02T11:10:57.250Z,99439.00
2019-02-02T11:13:27.010Z,99449.00
2019-02-02T11:15:56.755Z,99452.00
2019-02-02T11:18:26.809Z,99435.00
2019-02-02T11:20:56.519Z,99449.00
2019-02-02T11:23:26.442Z,99454.00
2019-02-02T11:25:56.164Z,99452.00
2019-02-02T11:28:27.236Z,99454.00
2019-02-02T11:30:56.960Z,99463.00
2019-02-02T11:33:26.615Z,99468.00
2019-02-02T11:35:56.856Z,99468.00
2019-02-02T11:38:26.531Z,99464.00
2019-02-02T11:40:56.177Z,99466.00
2019-02-02T11:43:29.072Z,99460.00
2019-02-02T11:45:58.749Z,99469.00
2019-02-02T11:48:30.114Z,99474.00
2019-02-02T11:50:59.788Z,99472.00
2019-02-02T11:53:29.457Z,99467.00
2019-02-02T11:55:59.207Z,99467.00
2019-02-02T11:58:30.960Z,99481.00
2019-02-02T12:01:04.099Z,99482.00
2019-02-02T12:03:33.745Z,99476.00
2019-02-02T12:06:04.786Z,99474.00
2019-02-02T12:08:38.919Z,99473.00
2019-02-02T12:11:14.320Z,99492.00
2019-02-02T12:13:54.792Z,99487.00
2019-02-02T12:16:37.438Z,99482.00
2019-02-02T12:19:09.480Z,99500.00
2019-02-02T12:21:48.121Z,99477.00
2019-02-02T12:24:20.868Z,99492.00
2019-02-02T12:26:55.034Z,99497.00
2019-02-02T12:29:28.572Z,99499.00
2019-02-02T12:32:04.369Z,99491.00
2019-02-02T12:34:48.778Z,99503.00
2019-02-02T12:37:21.752Z,99497.00
2019-02-02T12:39:54.911Z,99494.00
2019-02-02T12:42:35.102Z,99501.00
2019-02-02T12:45:10.010Z,99493.00
2019-02-02T12:47:45.323Z,99510.00
2019-02-02T12:50:16.131Z,99507.00
2019-02-02T12:52:46.243Z,99514.00
2019-02-02T12:55:16.001Z,99528.00
2019-02-02T12:57:45.835Z,99510.00
2019-02-02T13:00:20.769Z,99523.00
2019-02-02T13:02:53.383Z,99516.00
2019-02-02T13:05:25.034Z,99530.00
2019-02-02T13:07:56.881Z,99516.00
2019-02-02T13:10:36.655Z,99539.00
2019-02-02T13:13:06.625Z,99540.00
2019-02-02T13:15:36.668Z,99532.00
2019-02-02T13:18:06.472Z,99543.00
2019-02-02T13:20:36.284Z,99531.00
2019-02-02T13:23:06.309Z,99536.00
2019-02-02T13:25:38.405Z,99526.00
2019-02-02T13:28:08.030Z,99537.00
2019-02-02T13:30:38.131Z,99553.00
2019-02-02T13:33:07.791Z,99538.00
2019-02-02T13:35:39.905Z,99545.00
2019-02-02T13:38:10.688Z,99551.00
2019-02-02T13:40:40.454Z,99569.00
2019-02-02T13:43:10.092Z,99570.00
2019-02-02T13:45:39.863Z,99583.00
2019-02-02T13:48:10.757Z,99578.00
2019-02-02T13:50:40.679Z,99586.00
2019-02-02T13:53:10.812Z,99583.00
2019-02-02T13:55:40.543Z,99583.00
2019-02-02T13:58:10.390Z,99595.00
2019-02-02T14:00:40.045Z,99587.00
2019-02-02T14:03:09.929Z,99603.00
2019-02-02T14:05:39.998Z,99586.00
2019-02-02T14:08:09.658Z,99553.00
2019-02-02T14:10:39.353Z,99609.00
2019-02-02T14:13:09.030Z,99619.00
2019-02-02T14:15:39.471Z,99621.00
2019-02-02T14:18:09.541Z,99603.00
2019-02-02T14:20:39.189Z,99610.00
2019-02-02T14:23:09.250Z,99616.00
2019-02-02T14:25:40.718Z,99625.00
2019-02-02T14:28:10.372Z,99626.00
2019-02-02T14:30:40.018Z,99622.00
2019-02-02T14:33:14.282Z,99624.00
2019-02-02T14:35:41.075Z,99637.00
2019-02-02T14:38:10.839Z,99646.00
2019-02-02T14:40:40.627Z,99647.00
2019-02-02T14:43:10.250Z,99650.00
2019-02-02T14:45:41.536Z,99654.00
2019-02-02T14:48:11.203Z,99658.00
2019-02-02T14:50:42.309Z,99672.00
2019-02-02T14:53:11.943Z,99674.00
2019-02-02T14:55:41.634Z,99685.00
2019-02-02T14:58:12.245Z,99676.00
2019-02-02T15:00:43.169Z,99690.00
2019-02-02T15:03:13.020Z,99694.00
2019-02-02T15:05:43.431Z,99705.00
2019-02-02T15:08:13.050Z,99710.00
2019-02-02T15:10:42.741Z,99713.00
2019-02-02T15:13:12.412Z,99715.00
2019-02-02T15:15:42.077Z,99715.00
2019-02-02T15:18:11.821Z,99724.00
2019-02-02T15:20:41.464Z,99734.00
2019-02-02T15:23:11.130Z,99738.00
2019-02-02T15:25:40.797Z,99734.00
2019-02-02T15:28:10.464Z,99739.00
2019-02-02T15:30:41.205Z,99735.00
2019-02-02T15:33:10.885Z,99728.00
2019-02-02T15:35:41.485Z,99717.00
2019-02-02T15:38:11.131Z,99748.00
2019-02-02T15:40:40.819Z,99728.00
2019-02-02T15:43:11.946Z,99732.00
2019-02-02T15:45:42.316Z,99733.00
2019-02-02T15:48:12.166Z,99746.00
2019-02-02T15:50:41.914Z,99742.00
2019-02-02T15:53:11.711Z,99740.00
2019-02-02T15:55:41.388Z,99758.00
2019-02-02T15:58:11.041Z,99767.00
2019-02-02T16:00:42.321Z,99768.00
2019-02-02T16:03:12.187Z,99776.00
2019-02-02T16:05:41.841Z,99778.00
2019-02-02T16:08:12.906Z,99777.00
2019-02-02T16:10:42.590Z,99783.00
2019-02-02T16:13:12.187Z,99786.00
2019-02-02T16:15:41.882Z,99810.00
2019-02-02T16:18:11.555Z,99818.00
2019-02-02T16:20:43.924Z,99811.00
2019-02-02T16:23:13.609Z,99856.00
2019-02-02T16:25:43.570Z,99842.00
2019-02-02T16:28:13.422Z,99848.00
2019-02-02T16:30:43.171Z,99869.00
2019-02-02T16:33:12.985Z,99859.00
2019-02-02T16:35:42.648Z,99873.00
2019-02-02T16:38:12.534Z,99884.00
2019-02-02T16:40:46.156Z,99882.00
2019-02-02T16:43:15.838Z,99884.00
2019-02-02T16:45:45.526Z,99886.00
2019-02-02T16:48:15.198Z,99890.00
2019-02-02T16:50:44.832Z,99898.00
2019-02-02T16:53:14.502Z,99895.00
2019-02-02T16:55:44.170Z,99895.00
2019-02-02T16:58:13.850Z,99890.00
2019-02-02T17:00:43.521Z,99900.00
2019-02-02T17:03:13.176Z,99911.00
2019-02-02T17:05:42.830Z,99913.00
2019-02-02T17:08:12.512Z,99913.00
2019-02-02T17:10:42.412Z,99921.00
2019-02-02T17:13:13.921Z,99931.00
2019-02-02T17:15:44.622Z,99933.00
2019-02-02T17:18:14.279Z,99927.00
2019-02-02T17:20:46.263Z,99935.00
2019-02-02T17:23:16.008Z,99940.00
2019-02-02T17:25:45.669Z,99951.00
2019-02-02T17:28:15.153Z,99938.00
2019-02-02T17:30:46.172Z,99956.00
2019-02-02T17:33:16.389Z,99952.00
2019-02-02T17:35:46.036Z,99964.00
2019-02-02T17:38:17.363Z,99962.00
2019-02-02T17:40:48.187Z,99968.00
2019-02-02T17:43:17.870Z,99967.00
2019-02-02T17:45:47.448Z,99968.00
2019-02-02T17:48:17.192Z,99989.00
2019-02-02T17:50:46.855Z,99988.00
2019-02-02T17:53:16.587Z,99995.00
2019-02-02T17:55:46.321Z,100005.00
2019-02-02T17:58:16.767Z,99954.00
2019-02-02T18:00:53.954Z,100004.00
2019-02-02T18:03:23.607Z,100017.00
2019-02-02T18:05:53.278Z,100022.00
2019-02-02T18:08:23.143Z,100029.00
2019-02-02T18:10:52.806Z,100026.00
2019-02-02T18:13:22.568Z,100032.00
2019-02-02T18:15:52.254Z,100028.00
2019-02-02T18:18:23.321Z,100028.00
2019-02-02T18:20:52.987Z,100034.00
2019-02-02T18:23:22.625Z,100049.00
2019-02-02T18:25:52.282Z,100041.00
2019-02-02T18:28:21.940Z,100043.00
2019-02-02T18:30:51.641Z,100058.00
2019-02-02T18:33:21.289Z,100058.00
2019-02-02T18:35:52.415Z,100054.00
2019-02-02T18:38:22.323Z,100053.00
2019-02-02T18:40:51.991Z,100074.00
2019-02-02T18:43:22.791Z,100061.00
2019-02-02T18:45:52.463Z,100077.00
2019-02-02T18:48:22.207Z,100083.00
2019-02-02T18:50:51.861Z,100097.00
2019-02-02T18:53:21.616Z,100104.00
2019-02-02T18:55:55.891Z,100102.00
2019-02-02T18:58:25.615Z,100100.00
2019-02-02T19:00:55.353Z,100124.00
2019-02-02T19:03:25.106Z,100128.00
2019-02-02T19:05:56.089Z,100138.00
2019-02-02T19:08:26.943Z,100136.00
2019-02-02T19:10:56.611Z,100148.00
2019-02-02T19:13:26.264Z,100149.00
2019-02-02T19:15:55.951Z,100116.00
2019-02-02T19:18:25.700Z,100162.00
2019-02-02T19:20:55.504Z,100159.00
2019-02-02T19:23:25.756Z,100170.00
2019-02-02T19:25:55.592Z,100172.00
2019-02-02T19:28:28.300Z,100169.00
2019-02-02T19:30:56.661Z,100178.00
2019-02-02T19:33:26.305Z,100184.00
2019-02-02T19:35:55.953Z,100184.00
2019-02-02T19:38:25.632Z,100192.00
2019-02-02T19:40:55.297Z,100177.00
2019-02-02T19:43:26.413Z,100189.00
2019-02-02T19:45:56.082Z,100191.00
2019-02-02T19:48:25.917Z,100180.00
2019-02-02T19:50:55.576Z,100203.00
2019-02-02T19:53:25.392Z,100209.00
2019-02-02T19:55:54.939Z,100214.00
2019-02-02T19:58:24.605Z,100204.00
2019-02-02T20:00:55.990Z,100199.00
2019-02-02T20:03:25.631Z,100209.00
2019-02-02T20:05:55.430Z,100209.00
2019-02-02T20:08:26.348Z,100210.00
2019-02-02T20:10:56.306Z,100208.00
2019-02-02T20:13:26.100Z,100215.00
2019-02-02T20:15:55.794Z,100212.00
2019-02-02T20:18:25.461Z,100223.00
2019-02-02T20:20:55.116Z,100230.00
2019-02-02T20:23:24.789Z,100226.00
2019-02-02T20:25:54.287Z,100232.00
2019-02-02T20:28:23.937Z,100236.00
2019-02-02T20:30:53.617Z,100239.00
2019-02-02T20:33:23.272Z,100253.00
2019-02-02T20:35:52.919Z,100254.00
2019-02-02T20:38:24.565Z,100255.00
2019-02-02T20:40:56.808Z,100261.00
2019-02-02T20:43:26.483Z,100261.00
2019-02-02T20:45:56.168Z,100261.00
2019-02-02T20:48:25.813Z,100258.00
2019-02-02T20:50:55.484Z,100259.00
2019-02-02T20:53:25.175Z,100264.00
2019-02-02T20:55:54.830Z,100257.00
2019-02-02T20:58:24.514Z,100261.00
2019-02-02T21:00:54.315Z,100273.00
2019-02-02T21:03:24.064Z,100271.00
2019-02-02T21:05:53.718Z,100277.00
2019-02-02T21:08:24.994Z,100291.00
2019-02-02T21:10:54.671Z,100291.00
2019-02-02T21:13:24.417Z,100292.00
2019-02-02T21:15:54.101Z,100301.00
2019-02-02T21:18:23.747Z,100306.00
2019-02-02T21:20:53.370Z,100307.00
2019-02-02T21:23:25.063Z,100309.00
2019-02-02T21:25:55.874Z,100303.00
2019-02-02T21:28:25.530Z,100319.00
2019-02-02T21:30:55.458Z,100318.00
2019-02-02T21:33:25.109Z,100319.00
2019-02-02T21:36:03.497Z,100321.00
2019-02-02T21:38:26.166Z,100315.00
2019-02-02T21:40:55.818Z,100321.00
2019-02-02T21:43:25.496Z,100324.00
2019-02-02T21:45:55.200Z,100334.00
2019-02-02T21:48:24.927Z,100333.00
2019-02-02T21:50:54.596Z,100331.00
2019-02-02T21:53:25.486Z,100333.00
2019-02-02T21:55:55.384Z,100319.00
2019-02-02T21:58:25.048Z,100334.00
2019-02-02T22:00:54.733Z,100330.00
2019-02-02T22:03:24.503Z,100341.00
2019-02-02T22:05:54.151Z,100337.00
2019-02-02T22:08:24.397Z,100344.00
2019-02-02T22:10:54.071Z,100341.00
2019-02-02T22:13:23.751Z,100354.00
2019-02-02T22:15:53.428Z,100355.00
2019-02-02T22:18:23.500Z,100351.00
2019-02-02T22:20:53.547Z,100360.00
2019-02-02T22:23:23.220Z,100361.00
2019-02-02T22:25:54.545Z,100371.00
2019-02-02T22:28:24.196Z,100384.00
2019-02-02T22:30:53.863Z,100379.00
2019-02-02T22:33:24.025Z,100389.00
2019-02-02T22:35:53.688Z,100376.00
2019-02-02T22:38:23.442Z,100375.00
2019-02-02T22:40:53.037Z,100376.00
2019-02-02T22:43:22.704Z,100378.00
2019-02-02T22:45:52.502Z,100381.00
2019-02-02T22:48:22.149Z,100390.00
2019-02-02T22:50:51.796Z,100397.00
2019-02-02T22:53:21.827Z,100391.00
2019-02-02T22:55:51.432Z,100397.00
2019-02-02T22:58:22.650Z,100397.00
2019-02-02T23:01:06.433Z,100401.00
2019-02-02T23:03:52.555Z,100397.00
2019-02-02T23:06:52.002Z,100407.00
2019-02-02T23:09:52.883Z,100415.00
2019-02-02T23:12:31.925Z,100408.00
2019-02-02T23:15:36.059Z,100423.00
2019-02-02T23:18:06.146Z,100425.00
2019-02-02T23:20:35.803Z,100433.00
2019-02-02T23:23:07.010Z,100435.00
2019-02-02T23:25:36.673Z,100429.00
2019-02-02T23:28:06.669Z,100434.00
2019-02-02T23:30:36.336Z,100432.00
2019-02-02T23:33:06.006Z,100431.00
2019-02-02T23:35:35.720Z,100433.00
2019-02-02T23:38:07.547Z,100440.00
2019-02-02T23:40:37.232Z,100442.00
2019-02-02T23:43:07.269Z,100449.00
2019-02-02T23:45:36.919Z,100443.00
2019-02-02T23:48:06.798Z,100455.00
2019-02-02T23:50:36.264Z,100462.00
2019-02-02T23:53:06.324Z,100457.00
2019-02-02T23:55:36.014Z,100454.00
2019-02-02T23:58:05.811Z,100460.00
